sensor_id;sensor_type;location;lat;lon;timestamp;temperature;humidity
46754;DHT22;32500;50.620;3.400;2024-03-23T00:54:37;17.70;71.10
46754;DHT22;32500;50.620;3.400;2024-03-23T00:57:02;17.60;71.00
46754;DHT22;32500;50.620;3.400;2024-03-23T00:59:28;17.70;71.10
46754;DHT22;32500;50.620;3.400;2024-03-23T01:01:57;17.60;70.90
46754;DHT22;32500;50.620;3.400;2024-03-23T01:04:22;17.60;70.90
46754;DHT22;32500;50.620;3.400;2024-03-23T01:06:48;17.60;71.00
46754;DHT22;32500;50.620;3.400;2024-03-23T01:09:14;17.60;70.90
46754;DHT22;32500;50.620;3.400;2024-03-23T01:11:40;17.60;70.80
46754;DHT22;32500;50.620;3.400;2024-03-23T01:14:06;17.50;70.80
46754;DHT22;32500;50.620;3.400;2024-03-23T01:16:32;17.50;70.90
46754;DHT22;32500;50.620;3.400;2024-03-23T01:18:57;17.50;70.70
46754;DHT22;32500;50.620;3.400;2024-03-23T01:21:24;17.50;70.70
46754;DHT22;32500;50.620;3.400;2024-03-23T01:23:49;17.50;70.60
46754;DHT22;32500;50.620;3.400;2024-03-23T01:26:15;17.50;70.80
46754;DHT22;32500;50.620;3.400;2024-03-23T01:28:41;17.50;70.80
46754;DHT22;32500;50.620;3.400;2024-03-23T01:31:06;17.50;70.70
46754;DHT22;32500;50.620;3.400;2024-03-23T01:33:32;17.40;70.50
46754;DHT22;32500;50.620;3.400;2024-03-23T01:35:58;17.40;70.50
46754;DHT22;32500;50.620;3.400;2024-03-23T01:38:23;17.40;70.50
46754;DHT22;32500;50.620;3.400;2024-03-23T01:40:49;17.40;70.40
46754;DHT22;32500;50.620;3.400;2024-03-23T01:43:15;17.40;70.50
46754;DHT22;32500;50.620;3.400;2024-03-23T01:45:40;17.40;70.50
46754;DHT22;32500;50.620;3.400;2024-03-23T01:48:06;17.30;70.40
46754;DHT22;32500;50.620;3.400;2024-03-23T01:50:32;17.30;70.50
46754;DHT22;32500;50.620;3.400;2024-03-23T01:53:02;17.30;70.50
46754;DHT22;32500;50.620;3.400;2024-03-23T01:55:28;17.30;70.50
46754;DHT22;32500;50.620;3.400;2024-03-23T01:57:56;17.30;70.60
46754;DHT22;32500;50.620;3.400;2024-03-23T02:00:22;17.30;70.50
46754;DHT22;32500;50.620;3.400;2024-03-23T02:02:48;17.30;70.50
46754;DHT22;32500;50.620;3.400;2024-03-23T02:05:14;17.30;70.50
46754;DHT22;32500;50.620;3.400;2024-03-23T02:07:41;17.30;70.60
46754;DHT22;32500;50.620;3.400;2024-03-23T02:10:07;17.20;70.50
46754;DHT22;32500;50.620;3.400;2024-03-23T02:12:33;17.20;70.60
46754;DHT22;32500;50.620;3.400;2024-03-23T02:15:00;17.20;70.60
46754;DHT22;32500;50.620;3.400;2024-03-23T02:17:25;17.20;70.60
46754;DHT22;32500;50.620;3.400;2024-03-23T02:19:51;17.20;70.50
46754;DHT22;32500;50.620;3.400;2024-03-23T02:22:17;17.20;70.60
46754;DHT22;32500;50.620;3.400;2024-03-23T02:24:43;17.20;70.40
46754;DHT22;32500;50.620;3.400;2024-03-23T02:27:08;17.20;70.50
46754;DHT22;32500;50.620;3.400;2024-03-23T02:29:34;17.20;70.60
46754;DHT22;32500;50.620;3.400;2024-03-23T02:32:00;17.10;70.50
46754;DHT22;32500;50.620;3.400;2024-03-23T02:34:25;17.10;70.50
46754;DHT22;32500;50.620;3.400;2024-03-23T02:36:51;17.10;70.50
46754;DHT22;32500;50.620;3.400;2024-03-23T02:39:16;17.10;70.50
46754;DHT22;32500;50.620;3.400;2024-03-23T02:41:42;17.10;70.50
46754;DHT22;32500;50.620;3.400;2024-03-23T02:44:08;17.10;70.50
46754;DHT22;32500;50.620;3.400;2024-03-23T02:46:37;17.10;70.50
46754;DHT22;32500;50.620;3.400;2024-03-23T02:49:03;17.00;70.50
46754;DHT22;32500;50.620;3.400;2024-03-23T02:51:30;17.10;70.50
46754;DHT22;32500;50.620;3.400;2024-03-23T02:53:56;17.00;70.50
46754;DHT22;32500;50.620;3.400;2024-03-23T02:56:22;17.00;70.40
46754;DHT22;32500;50.620;3.400;2024-03-23T02:58:47;17.00;70.40
46754;DHT22;32500;50.620;3.400;2024-03-23T03:01:13;17.00;70.40
46754;DHT22;32500;50.620;3.400;2024-03-23T03:03:38;17.00;70.40
46754;DHT22;32500;50.620;3.400;2024-03-23T03:06:04;17.00;70.40
46754;DHT22;32500;50.620;3.400;2024-03-23T03:08:30;17.00;70.40
46754;DHT22;32500;50.620;3.400;2024-03-23T03:10:56;16.90;70.30
46754;DHT22;32500;50.620;3.400;2024-03-23T03:13:21;16.90;70.30
46754;DHT22;32500;50.620;3.400;2024-03-23T03:15:47;16.90;70.30
46754;DHT22;32500;50.620;3.400;2024-03-23T03:18:13;16.90;70.30
46754;DHT22;32500;50.620;3.400;2024-03-23T03:20:41;16.90;70.30
46754;DHT22;32500;50.620;3.400;2024-03-23T03:23:07;16.90;70.30
46754;DHT22;32500;50.620;3.400;2024-03-23T03:25:33;16.90;70.30
46754;DHT22;32500;50.620;3.400;2024-03-23T03:27:59;16.80;70.20
46754;DHT22;32500;50.620;3.400;2024-03-23T03:30:24;16.80;70.20
46754;DHT22;32500;50.620;3.400;2024-03-23T03:32:53;16.80;70.20
46754;DHT22;32500;50.620;3.400;2024-03-23T03:35:19;16.80;70.10
46754;DHT22;32500;50.620;3.400;2024-03-23T03:37:44;16.80;70.10
46754;DHT22;32500;50.620;3.400;2024-03-23T03:40:11;16.80;70.20
46754;DHT22;32500;50.620;3.400;2024-03-23T03:42:37;16.80;70.20
46754;DHT22;32500;50.620;3.400;2024-03-23T03:45:03;16.80;70.20
46754;DHT22;32500;50.620;3.400;2024-03-23T03:47:30;16.80;70.10
46754;DHT22;32500;50.620;3.400;2024-03-23T03:49:55;16.70;70.80
46754;DHT22;32500;50.620;3.400;2024-03-23T03:52:21;16.70;70.00
46754;DHT22;32500;50.620;3.400;2024-03-23T03:54:47;16.70;70.80
46754;DHT22;32500;50.620;3.400;2024-03-23T03:57:12;16.70;70.00
46754;DHT22;32500;50.620;3.400;2024-03-23T03:59:38;16.70;70.00
46754;DHT22;32500;50.620;3.400;2024-03-23T04:02:03;16.70;69.90
46754;DHT22;32500;50.620;3.400;2024-03-23T04:04:29;16.60;69.90
46754;DHT22;32500;50.620;3.400;2024-03-23T04:06:59;16.70;69.90
46754;DHT22;32500;50.620;3.400;2024-03-23T04:09:25;16.70;69.90
46754;DHT22;32500;50.620;3.400;2024-03-23T04:11:51;16.60;69.90
46754;DHT22;32500;50.620;3.400;2024-03-23T04:14:16;16.60;69.90
46754;DHT22;32500;50.620;3.400;2024-03-23T04:16:43;16.60;69.80
46754;DHT22;32500;50.620;3.400;2024-03-23T04:19:08;16.60;69.80
46754;DHT22;32500;50.620;3.400;2024-03-23T04:21:37;16.60;69.90
46754;DHT22;32500;50.620;3.400;2024-03-23T04:24:03;16.60;69.70
46754;DHT22;32500;50.620;3.400;2024-03-23T04:26:29;16.60;69.60
46754;DHT22;32500;50.620;3.400;2024-03-23T04:28:55;16.50;69.60
46754;DHT22;32500;50.620;3.400;2024-03-23T04:31:20;16.50;69.60
46754;DHT22;32500;50.620;3.400;2024-03-23T04:33:47;16.50;69.60
46754;DHT22;32500;50.620;3.400;2024-03-23T04:36:12;16.50;69.60
46754;DHT22;32500;50.620;3.400;2024-03-23T04:38:38;16.50;69.60
46754;DHT22;32500;50.620;3.400;2024-03-23T04:41:04;16.50;69.70
46754;DHT22;32500;50.620;3.400;2024-03-23T04:43:29;16.40;69.80
46754;DHT22;32500;50.620;3.400;2024-03-23T04:45:55;16.50;69.80
46754;DHT22;32500;50.620;3.400;2024-03-23T04:48:22;16.50;69.80
46754;DHT22;32500;50.620;3.400;2024-03-23T04:50:54;16.50;69.80
46754;DHT22;32500;50.620;3.400;2024-03-23T04:53:20;16.50;69.80
46754;DHT22;32500;50.620;3.400;2024-03-23T04:55:46;16.40;69.70
46754;DHT22;32500;50.620;3.400;2024-03-23T04:58:11;16.40;69.70
46754;DHT22;32500;50.620;3.400;2024-03-23T05:00:37;16.40;69.70
46754;DHT22;32500;50.620;3.400;2024-03-23T05:03:03;16.40;69.70
46754;DHT22;32500;50.620;3.400;2024-03-23T05:05:29;16.40;69.70
46754;DHT22;32500;50.620;3.400;2024-03-23T05:07:55;16.40;69.60
46754;DHT22;32500;50.620;3.400;2024-03-23T05:10:21;16.30;69.60
46754;DHT22;32500;50.620;3.400;2024-03-23T05:12:47;16.40;69.70
46754;DHT22;32500;50.620;3.400;2024-03-23T05:15:12;16.30;69.60
46754;DHT22;32500;50.620;3.400;2024-03-23T05:17:38;16.30;69.60
46754;DHT22;32500;50.620;3.400;2024-03-23T05:20:05;16.30;69.60
46754;DHT22;32500;50.620;3.400;2024-03-23T05:22:38;16.30;69.60
46754;DHT22;32500;50.620;3.400;2024-03-23T05:25:04;16.30;69.70
46754;DHT22;32500;50.620;3.400;2024-03-23T05:27:32;16.30;69.70
46754;DHT22;32500;50.620;3.400;2024-03-23T05:29:58;16.20;69.70
46754;DHT22;32500;50.620;3.400;2024-03-23T05:32:24;16.20;69.60
46754;DHT22;32500;50.620;3.400;2024-03-23T05:34:50;16.20;69.60
46754;DHT22;32500;50.620;3.400;2024-03-23T05:37:21;16.20;69.60
46754;DHT22;32500;50.620;3.400;2024-03-23T05:39:47;16.20;69.40
46754;DHT22;32500;50.620;3.400;2024-03-23T05:42:18;16.20;69.50
46754;DHT22;32500;50.620;3.400;2024-03-23T05:44:44;16.20;69.50
46754;DHT22;32500;50.620;3.400;2024-03-23T05:47:10;16.20;70.20
46754;DHT22;32500;50.620;3.400;2024-03-23T05:49:37;16.10;69.40
46754;DHT22;32500;50.620;3.400;2024-03-23T05:52:02;16.20;69.50
46754;DHT22;32500;50.620;3.400;2024-03-23T05:54:29;16.10;69.40
46754;DHT22;32500;50.620;3.400;2024-03-23T05:56:55;16.10;69.40
46754;DHT22;32500;50.620;3.400;2024-03-23T05:59:21;16.10;69.30
46754;DHT22;32500;50.620;3.400;2024-03-23T06:01:47;16.10;69.30
46754;DHT22;32500;50.620;3.400;2024-03-23T06:04:13;16.10;69.40
46754;DHT22;32500;50.620;3.400;2024-03-23T06:06:42;16.10;69.30
46754;DHT22;32500;50.620;3.400;2024-03-23T06:09:07;16.10;69.40
46754;DHT22;32500;50.620;3.400;2024-03-23T06:11:33;16.00;69.30
46754;DHT22;32500;50.620;3.400;2024-03-23T06:13:58;16.00;69.40
46754;DHT22;32500;50.620;3.400;2024-03-23T06:16:24;16.00;69.40
46754;DHT22;32500;50.620;3.400;2024-03-23T06:18:50;16.00;69.50
46754;DHT22;32500;50.620;3.400;2024-03-23T06:21:16;16.00;69.40
46754;DHT22;32500;50.620;3.400;2024-03-23T06:23:42;16.00;69.30
46754;DHT22;32500;50.620;3.400;2024-03-23T06:26:08;16.00;69.50
46754;DHT22;32500;50.620;3.400;2024-03-23T06:28:34;15.90;69.50
46754;DHT22;32500;50.620;3.400;2024-03-23T06:30:59;16.00;69.70
46754;DHT22;32500;50.620;3.400;2024-03-23T06:33:25;16.00;69.50
46754;DHT22;32500;50.620;3.400;2024-03-23T06:35:51;15.90;69.60
46754;DHT22;32500;50.620;3.400;2024-03-23T06:38:18;16.00;69.60
46754;DHT22;32500;50.620;3.400;2024-03-23T06:40:43;15.90;69.50
46754;DHT22;32500;50.620;3.400;2024-03-23T06:43:13;15.90;69.50
46754;DHT22;32500;50.620;3.400;2024-03-23T06:45:39;15.90;69.50
46754;DHT22;32500;50.620;3.400;2024-03-23T06:48:05;15.90;69.70
46754;DHT22;32500;50.620;3.400;2024-03-23T06:50:33;15.90;69.40
46754;DHT22;32500;50.620;3.400;2024-03-23T06:52:59;15.90;69.40
46754;DHT22;32500;50.620;3.400;2024-03-23T06:55:25;15.90;69.70
46754;DHT22;32500;50.620;3.400;2024-03-23T06:57:52;15.90;69.60
46754;DHT22;32500;50.620;3.400;2024-03-23T07:00:18;15.90;69.60
46754;DHT22;32500;50.620;3.400;2024-03-23T07:02:44;15.90;69.40
46754;DHT22;32500;50.620;3.400;2024-03-23T07:05:10;15.90;69.50
46754;DHT22;32500;50.620;3.400;2024-03-23T07:07:37;15.80;69.30
46754;DHT22;32500;50.620;3.400;2024-03-23T07:10:05;15.80;69.50
46754;DHT22;32500;50.620;3.400;2024-03-23T07:12:31;15.80;69.30
46754;DHT22;32500;50.620;3.400;2024-03-23T07:14:56;15.80;69.50
46754;DHT22;32500;50.620;3.400;2024-03-23T07:17:22;15.80;69.30
46754;DHT22;32500;50.620;3.400;2024-03-23T07:19:48;15.70;69.30
46754;DHT22;32500;50.620;3.400;2024-03-23T07:22:13;15.80;69.40
46754;DHT22;32500;50.620;3.400;2024-03-23T07:24:41;15.70;69.10
46754;DHT22;32500;50.620;3.400;2024-03-23T07:27:06;15.70;69.00
46754;DHT22;32500;50.620;3.400;2024-03-23T07:29:35;15.70;69.30
46754;DHT22;32500;50.620;3.400;2024-03-23T07:32:02;15.70;69.20
46754;DHT22;32500;50.620;3.400;2024-03-23T07:34:27;15.70;69.30
46754;DHT22;32500;50.620;3.400;2024-03-23T07:36:53;15.70;69.40
46754;DHT22;32500;50.620;3.400;2024-03-23T07:39:18;15.70;69.20
46754;DHT22;32500;50.620;3.400;2024-03-23T07:41:45;15.70;69.30
46754;DHT22;32500;50.620;3.400;2024-03-23T07:44:11;15.60;69.30
46754;DHT22;32500;50.620;3.400;2024-03-23T07:46:36;15.60;69.10
46754;DHT22;32500;50.620;3.400;2024-03-23T07:49:04;15.60;69.00
46754;DHT22;32500;50.620;3.400;2024-03-23T07:51:30;15.60;69.10
46754;DHT22;32500;50.620;3.400;2024-03-23T07:53:55;15.60;69.70
46754;DHT22;32500;50.620;3.400;2024-03-23T07:56:21;15.60;70.50
46754;DHT22;32500;50.620;3.400;2024-03-23T07:58:49;15.60;69.50
46754;DHT22;32500;50.620;3.400;2024-03-23T08:01:16;15.60;69.30
46754;DHT22;32500;50.620;3.400;2024-03-23T08:03:43;15.70;69.30
46754;DHT22;32500;50.620;3.400;2024-03-23T08:06:14;15.70;69.40
46754;DHT22;32500;50.620;3.400;2024-03-23T08:08:41;15.70;69.80
46754;DHT22;32500;50.620;3.400;2024-03-23T08:11:07;15.70;69.50
46754;DHT22;32500;50.620;3.400;2024-03-23T08:13:39;15.70;69.50
46754;DHT22;32500;50.620;3.400;2024-03-23T08:16:05;15.70;69.50
46754;DHT22;32500;50.620;3.400;2024-03-23T08:18:31;15.70;69.30
46754;DHT22;32500;50.620;3.400;2024-03-23T08:23:24;15.70;70.30
46754;DHT22;32500;50.620;3.400;2024-03-23T08:25:50;15.80;70.40
46754;DHT22;32500;50.620;3.400;2024-03-23T08:28:16;15.80;70.20
46754;DHT22;32500;50.620;3.400;2024-03-23T08:30:42;15.80;70.20
46754;DHT22;32500;50.620;3.400;2024-03-23T08:33:08;15.80;69.80
46754;DHT22;32500;50.620;3.400;2024-03-23T08:35:34;15.80;69.90
46754;DHT22;32500;50.620;3.400;2024-03-23T08:38:00;15.80;69.60
46754;DHT22;32500;50.620;3.400;2024-03-23T08:40:26;15.80;69.40
46754;DHT22;32500;50.620;3.400;2024-03-23T08:42:51;15.80;69.10
46754;DHT22;32500;50.620;3.400;2024-03-23T08:45:17;15.90;69.80
46754;DHT22;32500;50.620;3.400;2024-03-23T08:47:42;15.90;69.40
46754;DHT22;32500;50.620;3.400;2024-03-23T08:50:08;15.90;69.10
46754;DHT22;32500;50.620;3.400;2024-03-23T08:52:34;15.90;69.30
46754;DHT22;32500;50.620;3.400;2024-03-23T08:55:00;15.90;69.60
46754;DHT22;32500;50.620;3.400;2024-03-23T08:57:25;16.00;70.10
46754;DHT22;32500;50.620;3.400;2024-03-23T08:59:52;16.00;70.60
46754;DHT22;32500;50.620;3.400;2024-03-23T09:02:18;16.00;70.60
46754;DHT22;32500;50.620;3.400;2024-03-23T09:04:44;16.10;70.60
46754;DHT22;32500;50.620;3.400;2024-03-23T09:07:10;16.10;70.20
46754;DHT22;32500;50.620;3.400;2024-03-23T09:09:38;16.10;70.10
46754;DHT22;32500;50.620;3.400;2024-03-23T09:12:04;16.00;70.30
46754;DHT22;32500;50.620;3.400;2024-03-23T09:14:30;16.10;70.10
46754;DHT22;32500;50.620;3.400;2024-03-23T09:16:56;16.10;69.80
46754;DHT22;32500;50.620;3.400;2024-03-23T09:19:21;16.10;70.20
46754;DHT22;32500;50.620;3.400;2024-03-23T09:21:47;16.10;69.70
46754;DHT22;32500;50.620;3.400;2024-03-23T09:24:14;15.90;61.10
46754;DHT22;32500;50.620;3.400;2024-03-23T09:26:40;15.90;58.70
46754;DHT22;32500;50.620;3.400;2024-03-23T09:29:05;15.70;57.50
46754;DHT22;32500;50.620;3.400;2024-03-23T09:31:31;15.80;59.40
46754;DHT22;32500;50.620;3.400;2024-03-23T09:33:59;15.70;58.00
46754;DHT22;32500;50.620;3.400;2024-03-23T09:36:24;15.70;58.80
46754;DHT22;32500;50.620;3.400;2024-03-23T09:38:50;15.80;60.00
46754;DHT22;32500;50.620;3.400;2024-03-23T09:41:16;16.00;64.80
46754;DHT22;32500;50.620;3.400;2024-03-23T09:43:41;16.10;65.20
46754;DHT22;32500;50.620;3.400;2024-03-23T09:46:08;16.10;65.20
46754;DHT22;32500;50.620;3.400;2024-03-23T09:48:33;16.20;65.20
46754;DHT22;32500;50.620;3.400;2024-03-23T09:50:59;16.30;65.30
46754;DHT22;32500;50.620;3.400;2024-03-23T09:53:25;16.30;65.50
46754;DHT22;32500;50.620;3.400;2024-03-23T09:55:50;16.40;65.70
46754;DHT22;32500;50.620;3.400;2024-03-23T09:58:17;16.40;66.30
46754;DHT22;32500;50.620;3.400;2024-03-23T10:00:43;16.40;66.80
46754;DHT22;32500;50.620;3.400;2024-03-23T10:03:09;16.50;67.10
46754;DHT22;32500;50.620;3.400;2024-03-23T10:05:37;16.50;67.60
46754;DHT22;32500;50.620;3.400;2024-03-23T10:08:17;16.50;67.80
46754;DHT22;32500;50.620;3.400;2024-03-23T10:10:46;16.60;68.20
46754;DHT22;32500;50.620;3.400;2024-03-23T10:13:24;16.60;68.50
46754;DHT22;32500;50.620;3.400;2024-03-23T10:15:55;16.60;68.70
46754;DHT22;32500;50.620;3.400;2024-03-23T10:18:21;16.60;69.00
46754;DHT22;32500;50.620;3.400;2024-03-23T10:21:09;16.70;69.20
46754;DHT22;32500;50.620;3.400;2024-03-23T10:23:37;16.70;69.10
46754;DHT22;32500;50.620;3.400;2024-03-23T10:29:00;16.70;68.20
46754;DHT22;32500;50.620;3.400;2024-03-23T10:31:34;16.70;68.00
46754;DHT22;32500;50.620;3.400;2024-03-23T10:34:03;16.70;68.10
46754;DHT22;32500;50.620;3.400;2024-03-23T10:36:30;16.70;68.20
46754;DHT22;32500;50.620;3.400;2024-03-23T10:38:56;16.70;68.10
46754;DHT22;32500;50.620;3.400;2024-03-23T10:41:27;16.70;68.00
46754;DHT22;32500;50.620;3.400;2024-03-23T10:43:53;16.70;67.90
46754;DHT22;32500;50.620;3.400;2024-03-23T10:46:21;16.70;67.90
46754;DHT22;32500;50.620;3.400;2024-03-23T10:48:46;16.70;67.70
46754;DHT22;32500;50.620;3.400;2024-03-23T10:51:14;16.70;67.50
46754;DHT22;32500;50.620;3.400;2024-03-23T10:53:39;16.70;67.00
46754;DHT22;32500;50.620;3.400;2024-03-23T10:56:06;16.80;65.90
46754;DHT22;32500;50.620;3.400;2024-03-23T10:58:43;16.70;66.30
46754;DHT22;32500;50.620;3.400;2024-03-23T11:01:15;16.80;66.40
46754;DHT22;32500;50.620;3.400;2024-03-23T11:03:45;16.80;66.60
46754;DHT22;32500;50.620;3.400;2024-03-23T11:06:37;16.80;66.60
46754;DHT22;32500;50.620;3.400;2024-03-23T11:09:03;16.80;66.20
46754;DHT22;32500;50.620;3.400;2024-03-23T11:11:29;16.80;66.20
46754;DHT22;32500;50.620;3.400;2024-03-23T11:13:59;16.80;66.20
46754;DHT22;32500;50.620;3.400;2024-03-23T11:16:29;16.80;66.00
46754;DHT22;32500;50.620;3.400;2024-03-23T11:19:35;16.80;66.10
46754;DHT22;32500;50.620;3.400;2024-03-23T11:22:02;16.80;65.10
46754;DHT22;32500;50.620;3.400;2024-03-23T11:24:28;16.90;65.60
46754;DHT22;32500;50.620;3.400;2024-03-23T11:26:54;16.90;65.90
46754;DHT22;32500;50.620;3.400;2024-03-23T11:29:20;16.90;65.30
46754;DHT22;32500;50.620;3.400;2024-03-23T11:31:50;16.90;66.20
46754;DHT22;32500;50.620;3.400;2024-03-23T11:34:16;16.90;64.50
46754;DHT22;32500;50.620;3.400;2024-03-23T11:36:43;17.00;65.20
46754;DHT22;32500;50.620;3.400;2024-03-23T11:39:27;17.00;65.50
46754;DHT22;32500;50.620;3.400;2024-03-23T11:41:54;17.10;66.10
46754;DHT22;32500;50.620;3.400;2024-03-23T11:44:21;17.10;66.30
46754;DHT22;32500;50.620;3.400;2024-03-23T11:46:50;17.10;66.50
46754;DHT22;32500;50.620;3.400;2024-03-23T11:51:48;17.10;65.80
46754;DHT22;32500;50.620;3.400;2024-03-23T11:54:14;17.10;65.10
46754;DHT22;32500;50.620;3.400;2024-03-23T11:56:40;17.10;65.30
46754;DHT22;32500;50.620;3.400;2024-03-23T11:59:06;17.20;64.80
46754;DHT22;32500;50.620;3.400;2024-03-23T12:01:33;17.30;63.50
46754;DHT22;32500;50.620;3.400;2024-03-23T12:03:58;17.30;64.20
46754;DHT22;32500;50.620;3.400;2024-03-23T12:06:24;17.30;64.00
46754;DHT22;32500;50.620;3.400;2024-03-23T12:08:51;17.30;63.80
46754;DHT22;32500;50.620;3.400;2024-03-23T12:11:17;17.20;63.90
46754;DHT22;32500;50.620;3.400;2024-03-23T12:13:44;17.20;64.20
46754;DHT22;32500;50.620;3.400;2024-03-23T12:16:17;17.20;64.30
46754;DHT22;32500;50.620;3.400;2024-03-23T12:18:45;17.20;64.50
46754;DHT22;32500;50.620;3.400;2024-03-23T12:21:11;17.20;65.40
46754;DHT22;32500;50.620;3.400;2024-03-23T12:23:39;17.20;64.50
46754;DHT22;32500;50.620;3.400;2024-03-23T12:26:05;17.20;64.60
46754;DHT22;32500;50.620;3.400;2024-03-23T12:28:32;17.30;64.70
46754;DHT22;32500;50.620;3.400;2024-03-23T12:30:58;17.20;64.40
46754;DHT22;32500;50.620;3.400;2024-03-23T12:33:23;17.20;64.50
46754;DHT22;32500;50.620;3.400;2024-03-23T12:35:52;17.20;64.30
46754;DHT22;32500;50.620;3.400;2024-03-23T12:38:19;17.20;64.60
46754;DHT22;32500;50.620;3.400;2024-03-23T12:40:48;17.20;64.50
46754;DHT22;32500;50.620;3.400;2024-03-23T12:43:14;17.20;64.70
46754;DHT22;32500;50.620;3.400;2024-03-23T12:45:40;17.20;64.50
46754;DHT22;32500;50.620;3.400;2024-03-23T12:48:06;17.20;64.60
46754;DHT22;32500;50.620;3.400;2024-03-23T12:50:32;17.20;64.80
46754;DHT22;32500;50.620;3.400;2024-03-23T12:52:58;17.20;64.80
46754;DHT22;32500;50.620;3.400;2024-03-23T12:55:24;17.20;64.60
46754;DHT22;32500;50.620;3.400;2024-03-23T12:57:49;17.20;64.70
46754;DHT22;32500;50.620;3.400;2024-03-23T13:00:15;17.20;64.50
46754;DHT22;32500;50.620;3.400;2024-03-23T13:02:42;17.20;65.00
46754;DHT22;32500;50.620;3.400;2024-03-23T13:05:08;17.20;64.50
46754;DHT22;32500;50.620;3.400;2024-03-23T13:07:37;17.30;64.60
46754;DHT22;32500;50.620;3.400;2024-03-23T13:10:04;17.20;64.30
46754;DHT22;32500;50.620;3.400;2024-03-23T13:12:31;17.30;64.30
46754;DHT22;32500;50.620;3.400;2024-03-23T13:15:00;17.20;64.20
46754;DHT22;32500;50.620;3.400;2024-03-23T13:17:27;17.20;64.30
46754;DHT22;32500;50.620;3.400;2024-03-23T13:19:53;17.20;64.80
46754;DHT22;32500;50.620;3.400;2024-03-23T13:22:19;17.20;65.00
46754;DHT22;32500;50.620;3.400;2024-03-23T13:24:45;17.20;64.70
46754;DHT22;32500;50.620;3.400;2024-03-23T13:27:10;17.20;64.40
46754;DHT22;32500;50.620;3.400;2024-03-23T13:29:36;17.20;64.10
46754;DHT22;32500;50.620;3.400;2024-03-23T13:32:05;17.20;64.00
46754;DHT22;32500;50.620;3.400;2024-03-23T13:34:32;17.10;63.90
46754;DHT22;32500;50.620;3.400;2024-03-23T13:36:58;17.20;63.90
46754;DHT22;32500;50.620;3.400;2024-03-23T13:39:24;17.10;63.90
46754;DHT22;32500;50.620;3.400;2024-03-23T13:41:51;17.10;64.20
46754;DHT22;32500;50.620;3.400;2024-03-23T13:44:16;17.20;64.20
46754;DHT22;32500;50.620;3.400;2024-03-23T13:46:43;17.10;64.10
46754;DHT22;32500;50.620;3.400;2024-03-23T13:49:26;17.10;64.30
46754;DHT22;32500;50.620;3.400;2024-03-23T13:51:53;17.10;64.20
46754;DHT22;32500;50.620;3.400;2024-03-23T13:54:18;17.10;64.30
46754;DHT22;32500;50.620;3.400;2024-03-23T13:56:44;17.10;64.30
46754;DHT22;32500;50.620;3.400;2024-03-23T13:59:10;17.10;64.40
46754;DHT22;32500;50.620;3.400;2024-03-23T14:01:35;17.10;64.30
46754;DHT22;32500;50.620;3.400;2024-03-23T14:04:01;17.10;64.50
46754;DHT22;32500;50.620;3.400;2024-03-23T14:06:27;17.10;64.60
46754;DHT22;32500;50.620;3.400;2024-03-23T14:08:52;17.10;64.50
46754;DHT22;32500;50.620;3.400;2024-03-23T14:11:18;17.10;64.50
46754;DHT22;32500;50.620;3.400;2024-03-23T14:13:44;17.10;64.50
46754;DHT22;32500;50.620;3.400;2024-03-23T14:16:10;17.10;64.50
46754;DHT22;32500;50.620;3.400;2024-03-23T14:18:36;17.10;64.40
46754;DHT22;32500;50.620;3.400;2024-03-23T14:21:02;17.10;64.40
46754;DHT22;32500;50.620;3.400;2024-03-23T14:23:29;17.10;64.10
46754;DHT22;32500;50.620;3.400;2024-03-23T14:25:56;17.10;64.40
46754;DHT22;32500;50.620;3.400;2024-03-23T14:28:22;17.10;64.40
46754;DHT22;32500;50.620;3.400;2024-03-23T14:30:51;17.10;64.30
46754;DHT22;32500;50.620;3.400;2024-03-23T14:33:18;17.10;64.30
46754;DHT22;32500;50.620;3.400;2024-03-23T14:35:51;17.10;64.30
46754;DHT22;32500;50.620;3.400;2024-03-23T14:38:18;17.10;64.40
46754;DHT22;32500;50.620;3.400;2024-03-23T14:40:45;17.10;64.40
46754;DHT22;32500;50.620;3.400;2024-03-23T14:43:10;17.10;64.40
46754;DHT22;32500;50.620;3.400;2024-03-23T14:45:36;17.10;64.20
46754;DHT22;32500;50.620;3.400;2024-03-23T14:48:02;17.10;64.20
46754;DHT22;32500;50.620;3.400;2024-03-23T14:50:28;17.10;64.10
46754;DHT22;32500;50.620;3.400;2024-03-23T14:52:54;17.10;64.10
46754;DHT22;32500;50.620;3.400;2024-03-23T14:55:19;17.10;64.10
46754;DHT22;32500;50.620;3.400;2024-03-23T14:57:45;17.10;64.20
46754;DHT22;32500;50.620;3.400;2024-03-23T15:00:11;17.10;64.30
46754;DHT22;32500;50.620;3.400;2024-03-23T15:02:38;17.10;64.30
46754;DHT22;32500;50.620;3.400;2024-03-23T15:05:04;17.10;63.70
46754;DHT22;32500;50.620;3.400;2024-03-23T15:07:31;17.10;64.00
46754;DHT22;32500;50.620;3.400;2024-03-23T15:09:58;17.10;64.10
46754;DHT22;32500;50.620;3.400;2024-03-23T15:12:23;17.10;64.10
46754;DHT22;32500;50.620;3.400;2024-03-23T15:14:49;17.10;64.10
46754;DHT22;32500;50.620;3.400;2024-03-23T15:17:15;17.10;64.10
46754;DHT22;32500;50.620;3.400;2024-03-23T15:19:40;17.10;64.00
46754;DHT22;32500;50.620;3.400;2024-03-23T15:22:11;17.10;64.20
46754;DHT22;32500;50.620;3.400;2024-03-23T15:24:36;17.10;64.00
46754;DHT22;32500;50.620;3.400;2024-03-23T15:27:03;17.10;63.90
46754;DHT22;32500;50.620;3.400;2024-03-23T15:29:29;17.10;63.80
46754;DHT22;32500;50.620;3.400;2024-03-23T15:31:54;17.10;63.90
46754;DHT22;32500;50.620;3.400;2024-03-23T15:34:21;17.10;63.80
46754;DHT22;32500;50.620;3.400;2024-03-23T15:36:49;17.10;64.10
46754;DHT22;32500;50.620;3.400;2024-03-23T15:39:17;17.10;64.10
46754;DHT22;32500;50.620;3.400;2024-03-23T15:41:46;17.10;64.00
46754;DHT22;32500;50.620;3.400;2024-03-23T15:44:12;17.10;63.70
46754;DHT22;32500;50.620;3.400;2024-03-23T15:46:37;17.00;63.90
46754;DHT22;32500;50.620;3.400;2024-03-23T15:49:03;17.00;64.10
46754;DHT22;32500;50.620;3.400;2024-03-23T15:51:30;17.00;63.90
46754;DHT22;32500;50.620;3.400;2024-03-23T15:53:59;17.10;64.00
46754;DHT22;32500;50.620;3.400;2024-03-23T15:56:25;17.00;64.00
46754;DHT22;32500;50.620;3.400;2024-03-23T15:58:50;17.00;64.00
46754;DHT22;32500;50.620;3.400;2024-03-23T16:01:16;17.00;64.00
46754;DHT22;32500;50.620;3.400;2024-03-23T16:03:42;17.10;64.70
46754;DHT22;32500;50.620;3.400;2024-03-23T16:06:08;17.00;64.70
46754;DHT22;32500;50.620;3.400;2024-03-23T16:08:34;17.10;64.90
46754;DHT22;32500;50.620;3.400;2024-03-23T16:11:00;17.10;64.70
46754;DHT22;32500;50.620;3.400;2024-03-23T16:13:27;17.00;64.40
46754;DHT22;32500;50.620;3.400;2024-03-23T16:16:04;17.10;64.40
46754;DHT22;32500;50.620;3.400;2024-03-23T16:18:37;17.10;64.30
46754;DHT22;32500;50.620;3.400;2024-03-23T16:21:06;17.10;64.40
46754;DHT22;32500;50.620;3.400;2024-03-23T16:23:35;17.10;64.30
46754;DHT22;32500;50.620;3.400;2024-03-23T16:26:04;17.00;64.00
46754;DHT22;32500;50.620;3.400;2024-03-23T16:28:31;17.00;64.40